createdAt,value
2019-01-06T00:02:14.930Z,78.34
2019-01-06T00:04:55.036Z,79.06
2019-01-06T00:07:41.572Z,78.99
2019-01-06T00:10:27.563Z,78.92
2019-01-06T00:13:13.542Z,79.56
2019-01-06T00:16:02.135Z,79.25
2019-01-06T00:18:48.968Z,78.74
2019-01-06T00:21:44.569Z,79.80
2019-01-06T00:24:37.787Z,78.58
2019-01-06T00:27:43.455Z,79.31
2019-01-06T00:30:30.089Z,80.10
2019-01-06T00:33:22.929Z,79.23
2019-01-06T00:36:13.020Z,78.20
2019-01-06T00:39:02.813Z,78.92
2019-01-06T00:41:48.489Z,79.28
2019-01-06T00:44:38.731Z,78.00
2019-01-06T00:47:28.734Z,77.58
2019-01-06T00:50:28.368Z,78.04
2019-01-06T00:53:24.454Z,78.42
2019-01-06T00:56:27.433Z,78.58
2019-01-06T00:59:23.408Z,78.47
2019-01-06T01:02:10.942Z,79.21
2019-01-06T01:04:56.918Z,78.33
2019-01-06T01:07:43.843Z,77.48
2019-01-06T01:10:33.726Z,78.44
2019-01-06T01:13:19.076Z,79.24
2019-01-06T01:16:10.029Z,78.82
2019-01-06T01:19:05.843Z,78.12
2019-01-06T01:21:55.457Z,78.58
2019-01-06T01:24:41.652Z,78.42
2019-01-06T01:27:28.557Z,78.12
2019-01-06T01:30:33.817Z,78.99
2019-01-06T01:33:20.650Z,78.87
2019-01-06T01:36:16.663Z,78.40
2019-01-06T01:39:22.175Z,79.42
2019-01-06T01:42:08.178Z,79.18
2019-01-06T01:44:53.534Z,78.01
2019-01-06T01:47:59.432Z,79.82
2019-01-06T01:50:45.371Z,78.34
2019-01-06T01:53:34.879Z,77.95
2019-01-06T01:56:22.522Z,78.58
2019-01-06T01:59:07.576Z,78.33
2019-01-06T02:01:53.420Z,79.07
2019-01-06T02:04:38.858Z,78.86
2019-01-06T02:07:24.826Z,79.31
2019-01-06T02:10:13.769Z,79.31
2019-01-06T02:13:00.048Z,79.56
2019-01-06T02:15:49.799Z,79.63
2019-01-06T02:18:27.850Z,80.18
2019-01-06T02:21:13.118Z,80.56
2019-01-06T02:24:00.279Z,79.21
2019-01-06T02:26:47.622Z,78.45
2019-01-06T02:29:44.075Z,78.96
2019-01-06T02:32:25.708Z,80.08
2019-01-06T02:35:19.163Z,79.33
2019-01-06T02:38:16.439Z,79.10
2019-01-06T02:41:02.238Z,79.21
2019-01-06T02:43:47.653Z,79.05
2019-01-06T02:46:33.645Z,78.19
2019-01-06T02:49:33.021Z,80.13
2019-01-06T02:52:22.349Z,79.95
2019-01-06T02:55:08.206Z,78.92
2019-01-06T02:57:54.089Z,79.92
2019-01-06T03:00:44.370Z,78.84
2019-01-06T03:03:30.006Z,78.51
2019-01-06T03:06:35.634Z,78.79
2019-01-06T03:09:37.581Z,78.64
2019-01-06T03:12:34.697Z,79.07
2019-01-06T03:15:13.000Z,79.49
2019-01-06T03:17:58.667Z,79.62
2019-01-06T03:20:43.176Z,80.05
2019-01-06T03:23:34.637Z,80.36
2019-01-06T03:26:30.406Z,80.50
2019-01-06T03:29:19.310Z,80.75
2019-01-06T03:32:09.980Z,80.92
2019-01-06T03:35:02.959Z,80.20
2019-01-06T03:38:04.338Z,80.79
2019-01-06T03:40:50.143Z,80.51
2019-01-06T03:43:46.044Z,80.93
2019-01-06T03:46:24.119Z,80.12
2019-01-06T03:49:09.981Z,80.49
2019-01-06T03:52:00.330Z,80.75
2019-01-06T03:54:40.388Z,80.57
2019-01-06T03:57:24.136Z,81.72
2019-01-06T04:00:23.147Z,80.76
2019-01-06T04:03:25.457Z,81.29
2019-01-06T04:06:31.218Z,81.19
2019-01-06T04:09:16.864Z,81.49
2019-01-06T04:12:03.258Z,81.19
2019-01-06T04:14:48.741Z,81.20
2019-01-06T04:17:35.448Z,80.75
2019-01-06T04:20:23.237Z,80.86
2019-01-06T04:23:06.299Z,80.81
2019-01-06T04:25:53.597Z,81.34
2019-01-06T04:28:55.929Z,81.41
2019-01-06T04:31:42.348Z,81.83
2019-01-06T04:34:27.348Z,80.63
2019-01-06T04:37:13.043Z,80.94
2019-01-06T04:40:09.754Z,80.77
2019-01-06T04:42:55.380Z,81.92
2019-01-06T04:45:40.873Z,80.36
2019-01-06T04:48:30.344Z,80.68
2019-01-06T04:51:36.065Z,80.75
2019-01-06T04:54:21.846Z,80.33
2019-01-06T04:57:17.997Z,80.87
2019-01-06T05:00:03.963Z,79.89
2019-01-06T05:02:59.287Z,80.28
2019-01-06T05:05:58.391Z,80.28
2019-01-06T05:08:44.221Z,79.89
2019-01-06T05:11:34.439Z,80.74
2019-01-06T05:14:09.898Z,81.03
2019-01-06T05:16:59.934Z,81.39
2019-01-06T05:19:59.228Z,80.37
2019-01-06T05:22:49.185Z,80.43
2019-01-06T05:25:45.412Z,80.01
2019-01-06T05:28:37.998Z,80.83
2019-01-06T05:31:30.587Z,81.05
2019-01-06T05:34:18.171Z,80.19
2019-01-06T05:37:05.232Z,80.86
2019-01-06T05:40:04.745Z,80.54
2019-01-06T05:42:52.332Z,80.79
2019-01-06T05:45:31.806Z,81.36
2019-01-06T05:48:25.006Z,80.99
2019-01-06T05:51:20.648Z,80.30
2019-01-06T05:54:06.304Z,80.45
2019-01-06T05:56:53.097Z,80.96
2019-01-06T05:59:35.730Z,81.67
2019-01-06T06:02:17.726Z,80.95
2019-01-06T06:05:03.606Z,80.50
2019-01-06T06:07:49.285Z,81.25
2019-01-06T06:10:45.591Z,80.95
2019-01-06T06:13:41.415Z,81.65
2019-01-06T06:16:44.077Z,79.48
2019-01-06T06:19:31.628Z,79.62
2019-01-06T06:22:23.466Z,79.90
2019-01-06T06:25:09.343Z,79.30
2019-01-06T06:28:05.024Z,79.55
2019-01-06T06:30:44.998Z,79.34
2019-01-06T06:33:34.537Z,78.69
2019-01-06T06:36:24.402Z,78.68
2019-01-06T06:39:14.472Z,79.73
2019-01-06T06:41:52.978Z,79.30
2019-01-06T06:44:39.477Z,79.20
2019-01-06T06:47:24.985Z,79.64
2019-01-06T06:50:24.418Z,79.69
2019-01-06T06:53:10.601Z,79.97
2019-01-06T06:55:56.176Z,80.16
2019-01-06T06:58:47.818Z,79.67
2019-01-06T07:02:15.071Z,80.16
2019-01-06T07:05:00.628Z,80.28
2019-01-06T07:07:48.484Z,79.97
2019-01-06T07:10:46.738Z,79.62
2019-01-06T07:13:41.726Z,80.52
2019-01-06T07:17:31.649Z,80.16
2019-01-06T07:20:34.076Z,79.91
2019-01-06T07:23:23.001Z,79.44
2019-01-06T07:26:02.719Z,79.37
2019-01-06T07:28:48.807Z,79.06
2019-01-06T07:31:36.129Z,80.00
2019-01-06T07:34:39.017Z,80.70
2019-01-06T07:37:40.877Z,80.53
2019-01-06T07:40:26.545Z,80.00
2019-01-06T07:43:03.518Z,80.79
2019-01-06T07:45:50.720Z,79.55
2019-01-06T07:48:32.289Z,81.04
2019-01-06T07:51:18.409Z,80.67
2019-01-06T07:54:17.931Z,80.03
2019-01-06T07:56:56.300Z,80.66
2019-01-06T07:59:32.770Z,80.40
2019-01-06T08:02:15.773Z,79.58
2019-01-06T08:05:08.725Z,79.83
2019-01-06T08:07:46.940Z,79.40
2019-01-06T08:10:33.024Z,78.95
2019-01-06T08:13:19.774Z,80.97
2019-01-06T08:16:09.492Z,79.97
2019-01-06T08:18:50.591Z,78.93
2019-01-06T08:21:45.472Z,78.98
2019-01-06T08:24:38.248Z,78.62
2019-01-06T08:27:31.448Z,78.22
2019-01-06T08:30:16.440Z,79.07
2019-01-06T08:32:54.929Z,79.10
2019-01-06T08:35:39.367Z,78.57
2019-01-06T08:38:37.741Z,78.72
2019-01-06T08:41:37.331Z,80.18
2019-01-06T08:44:40.154Z,78.73
2019-01-06T08:47:23.754Z,79.62
2019-01-06T08:50:09.622Z,78.94
2019-01-06T08:52:57.866Z,78.86
2019-01-06T08:55:43.581Z,78.89
2019-01-06T08:58:39.822Z,80.35
2019-01-06T09:01:25.664Z,79.30
2019-01-06T09:04:12.520Z,78.46
2019-01-06T09:07:18.245Z,78.70
2019-01-06T09:10:06.805Z,77.84
2019-01-06T09:12:54.458Z,78.05
2019-01-06T09:15:42.233Z,77.86
2019-01-06T09:18:44.896Z,78.09
2019-01-06T09:21:31.848Z,76.78
2019-01-06T09:24:18.132Z,76.66
2019-01-06T09:27:07.646Z,76.77
2019-01-06T09:29:46.489Z,76.87
2019-01-06T09:32:39.567Z,76.96
2019-01-06T09:35:34.557Z,76.59
2019-01-06T09:38:20.542Z,77.15
2019-01-06T09:41:06.941Z,75.43
2019-01-06T09:43:53.845Z,75.17
2019-01-06T09:46:49.443Z,74.78
2019-01-06T09:49:48.789Z,76.18
2019-01-06T09:52:48.010Z,74.94
2019-01-06T09:55:38.313Z,75.60
2019-01-06T09:58:24.439Z,74.93
2019-01-06T10:01:11.345Z,73.76
2019-01-06T10:03:57.129Z,74.20
2019-01-06T10:06:46.770Z,74.05
2019-01-06T10:09:32.704Z,74.19
2019-01-06T10:12:28.647Z,73.21
2019-01-06T10:15:34.124Z,73.18
2019-01-06T10:18:27.361Z,74.18
2019-01-06T10:21:23.492Z,72.40
2019-01-06T10:24:25.306Z,73.57
2019-01-06T10:27:21.534Z,72.04
2019-01-06T10:30:16.969Z,71.61
2019-01-06T10:33:10.189Z,72.31
2019-01-06T10:35:54.325Z,71.00
2019-01-06T10:38:44.082Z,71.33
2019-01-06T10:41:30.305Z,71.05
2019-01-06T10:44:23.569Z,71.60
2019-01-06T10:47:11.577Z,71.28
2019-01-06T10:50:04.354Z,70.75
2019-01-06T10:52:51.898Z,70.17
2019-01-06T10:55:57.855Z,70.35
2019-01-06T10:58:51.221Z,69.30
2019-01-06T11:01:38.430Z,70.02
2019-01-06T11:04:32.116Z,70.77
2019-01-06T11:07:18.151Z,69.16
2019-01-06T11:10:07.062Z,70.59
2019-01-06T11:12:52.619Z,70.95
2019-01-06T11:15:39.213Z,69.53
2019-01-06T11:18:19.926Z,68.91
2019-01-06T11:21:05.065Z,69.58
2019-01-06T11:23:55.067Z,68.78
2019-01-06T11:26:42.359Z,69.58
2019-01-06T11:29:38.580Z,69.50
2019-01-06T11:32:16.486Z,69.32
2019-01-06T11:35:09.047Z,68.04
2019-01-06T11:37:49.262Z,68.76
2019-01-06T11:40:35.742Z,68.91
2019-01-06T11:43:37.721Z,68.31
2019-01-06T11:46:25.339Z,68.29
2019-01-06T11:49:10.846Z,67.23
2019-01-06T11:52:04.714Z,67.37
2019-01-06T11:54:45.435Z,69.36
2019-01-06T11:57:50.458Z,68.31
2019-01-06T12:00:52.621Z,69.27
2019-01-06T12:03:39.186Z,67.22
2019-01-06T12:06:41.686Z,67.59
2019-01-06T12:09:33.174Z,68.17
2019-01-06T12:12:26.956Z,67.07
2019-01-06T12:15:13.941Z,67.20
2019-01-06T12:17:51.942Z,67.16
2019-01-06T12:20:57.141Z,65.96
2019-01-06T12:23:56.311Z,67.28
2019-01-06T12:26:43.392Z,67.23
2019-01-06T12:29:28.993Z,67.08
2019-01-06T12:32:24.627Z,70.75
2019-01-06T12:35:20.863Z,67.00
2019-01-06T12:38:20.451Z,65.82
2019-01-06T12:41:17.054Z,65.74
2019-01-06T12:44:07.407Z,65.28
2019-01-06T12:47:00.946Z,65.79
2019-01-06T12:49:42.943Z,65.54
2019-01-06T12:52:27.894Z,67.41
2019-01-06T12:55:13.494Z,65.86
2019-01-06T12:58:12.474Z,64.79
2019-01-06T13:00:51.267Z,66.75
2019-01-06T13:03:36.930Z,65.74
2019-01-06T13:06:27.082Z,65.65
2019-01-06T13:09:10.611Z,65.46
2019-01-06T13:12:12.215Z,65.09
2019-01-06T13:15:05.543Z,65.96
2019-01-06T13:18:11.168Z,65.86
2019-01-06T13:21:01.976Z,65.25
2019-01-06T13:23:57.804Z,65.50
2019-01-06T13:26:43.514Z,64.61
2019-01-06T13:29:30.783Z,65.56
2019-01-06T13:32:16.606Z,67.13
2019-01-06T13:35:02.437Z,65.84
2019-01-06T13:37:49.492Z,65.70
2019-01-06T13:40:47.890Z,65.34
2019-01-06T13:43:40.999Z,64.62
2019-01-06T13:46:29.156Z,65.49
2019-01-06T13:49:22.502Z,65.62
2019-01-06T13:52:25.731Z,66.79
2019-01-06T13:55:25.645Z,65.60
2019-01-06T13:58:21.476Z,65.07
2019-01-06T14:01:07.557Z,64.55
2019-01-06T14:03:52.610Z,67.10
2019-01-06T14:06:53.432Z,66.34
2019-01-06T14:09:59.155Z,66.79
2019-01-06T14:12:51.974Z,66.19
2019-01-06T14:15:37.800Z,65.95
2019-01-06T14:18:23.849Z,67.71
2019-01-06T14:21:15.274Z,65.14
2019-01-06T14:24:20.542Z,65.77
2019-01-06T14:27:12.855Z,65.60
2019-01-06T14:30:08.920Z,65.56
2019-01-06T14:32:59.464Z,66.25
2019-01-06T14:35:46.758Z,67.96
2019-01-06T14:38:34.049Z,66.71
2019-01-06T14:41:20.258Z,67.36
2019-01-06T14:44:10.982Z,68.39
2019-01-06T14:47:01.030Z,68.00
2019-01-06T14:49:49.106Z,67.08
2019-01-06T14:52:35.464Z,67.78
2019-01-06T14:55:24.369Z,68.46
2019-01-06T14:58:11.946Z,68.60
2019-01-06T15:01:12.591Z,67.65
2019-01-06T15:03:59.820Z,68.57
2019-01-06T15:06:59.310Z,69.99
2019-01-06T15:09:58.239Z,68.40
2019-01-06T15:12:51.578Z,68.92
2019-01-06T15:15:37.240Z,69.09
2019-01-06T15:18:43.122Z,69.23
2019-01-06T15:21:34.333Z,69.43
2019-01-06T15:24:22.468Z,69.88
2019-01-06T15:27:02.100Z,70.09
2019-01-06T15:30:01.686Z,70.15
2019-01-06T15:32:54.705Z,70.65
2019-01-06T15:35:40.825Z,70.19
2019-01-06T15:38:29.498Z,70.39
2019-01-06T15:41:14.229Z,71.66
2019-01-06T15:43:59.838Z,70.81
2019-01-06T15:46:58.912Z,71.12
2019-01-06T15:49:50.757Z,70.83
2019-01-06T15:52:49.561Z,71.29
2019-01-06T15:55:52.134Z,71.19
2019-01-06T15:58:52.128Z,71.30
2019-01-06T16:01:41.950Z,72.26
2019-01-06T16:04:19.784Z,71.93
2019-01-06T16:07:00.721Z,71.88
2019-01-06T16:10:00.280Z,72.08
2019-01-06T16:12:53.537Z,72.12
2019-01-06T16:15:43.930Z,72.16
2019-01-06T16:18:37.121Z,72.50
2019-01-06T16:21:29.249Z,73.01
2019-01-06T16:24:15.638Z,73.19
2019-01-06T16:27:09.874Z,72.74
2019-01-06T16:29:57.421Z,72.83
2019-01-06T16:32:50.728Z,72.94
2019-01-06T16:35:36.497Z,73.24
2019-01-06T16:38:29.023Z,73.04
2019-01-06T16:41:04.766Z,73.30
2019-01-06T16:43:46.576Z,73.91
2019-01-06T16:46:49.188Z,73.89
2019-01-06T16:49:34.610Z,73.84
2019-01-06T16:52:33.243Z,73.51
2019-01-06T16:55:19.102Z,74.16
2019-01-06T16:58:12.938Z,73.47
2019-01-06T17:00:59.870Z,73.47
2019-01-06T17:03:52.669Z,73.57
2019-01-06T17:06:43.535Z,73.61
2019-01-06T17:09:45.724Z,73.80
2019-01-06T17:12:40.672Z,73.94
2019-01-06T17:15:27.858Z,73.70
2019-01-06T17:18:08.886Z,73.89
2019-01-06T17:20:55.074Z,73.99
2019-01-06T17:23:51.182Z,73.78
2019-01-06T17:26:56.584Z,73.90
2019-01-06T17:29:39.136Z,73.74
2019-01-06T17:32:26.173Z,74.89
2019-01-06T17:35:29.129Z,73.74
2019-01-06T17:38:16.020Z,73.81
2019-01-06T17:41:00.738Z,74.03
2019-01-06T17:43:47.522Z,74.07
2019-01-06T17:46:42.467Z,74.93
2019-01-06T17:49:20.346Z,74.62
2019-01-06T17:52:04.060Z,74.25
2019-01-06T17:54:48.332Z,74.49
2019-01-06T17:57:38.078Z,74.54
2019-01-06T18:00:40.126Z,74.82
2019-01-06T18:03:33.360Z,75.70
2019-01-06T18:06:22.280Z,75.84
2019-01-06T18:09:09.571Z,75.80
2019-01-06T18:11:55.288Z,75.24
2019-01-06T18:15:01.001Z,75.46
2019-01-06T18:17:43.999Z,76.08
2019-01-06T18:20:29.012Z,75.99
2019-01-06T18:23:24.241Z,75.88
2019-01-06T18:26:10.859Z,75.87
2019-01-06T18:29:16.935Z,76.02
2019-01-06T18:32:04.489Z,76.27
2019-01-06T18:34:52.867Z,76.52
2019-01-06T18:37:49.703Z,76.41
2019-01-06T18:40:35.479Z,76.08
2019-01-06T18:43:21.572Z,76.03
2019-01-06T18:46:21.411Z,76.31
2019-01-06T18:49:12.060Z,76.43
2019-01-06T18:52:05.182Z,77.09
2019-01-06T18:54:50.872Z,76.65
2019-01-06T18:57:35.764Z,76.61
2019-01-06T19:00:33.296Z,75.71
2019-01-06T19:03:39.013Z,76.17
2019-01-06T19:06:28.957Z,75.66
2019-01-06T19:09:31.689Z,75.95
2019-01-06T19:12:14.556Z,75.35
2019-01-06T19:15:03.304Z,75.28
2019-01-06T19:17:51.251Z,75.95
2019-01-06T19:20:56.171Z,75.69
2019-01-06T19:23:49.633Z,75.91
2019-01-06T19:26:48.955Z,75.54
2019-01-06T19:29:38.605Z,74.87
2019-01-06T19:32:25.907Z,75.61
2019-01-06T19:35:22.831Z,75.28
2019-01-06T19:38:08.673Z,75.36
2019-01-06T19:40:58.815Z,74.72
2019-01-06T19:43:44.761Z,74.79
2019-01-06T19:46:34.926Z,76.32
2019-01-06T19:49:24.870Z,74.20
2019-01-06T19:52:12.951Z,74.05
2019-01-06T19:54:58.726Z,74.21
2019-01-06T19:57:47.227Z,75.09
2019-01-06T20:00:22.964Z,75.93
2019-01-06T20:03:04.573Z,75.82
2019-01-06T20:06:00.841Z,75.54
2019-01-06T20:08:47.242Z,75.71
2019-01-06T20:11:26.970Z,75.89
2019-01-06T20:14:16.058Z,75.93
2019-01-06T20:17:02.078Z,74.67
2019-01-06T20:19:49.967Z,75.79
2019-01-06T20:22:35.623Z,75.36
2019-01-06T20:25:16.498Z,75.38
2019-01-06T20:28:05.520Z,75.91
2019-01-06T20:31:04.873Z,75.82
2019-01-06T20:34:01.980Z,74.42
2019-01-06T20:36:58.517Z,75.16
2019-01-06T20:39:42.473Z,75.17
2019-01-06T20:42:21.894Z,75.46
2019-01-06T20:45:08.434Z,76.18
2019-01-06T20:48:07.799Z,75.77
2019-01-06T20:50:57.272Z,75.75
2019-01-06T20:53:44.382Z,75.55
2019-01-06T20:56:44.489Z,75.49
2019-01-06T20:59:43.393Z,75.26
2019-01-06T21:02:30.466Z,75.34
2019-01-06T21:05:22.402Z,75.44
2019-01-06T21:08:14.960Z,75.41
2019-01-06T21:11:05.239Z,75.50
2019-01-06T21:13:55.608Z,75.31
2019-01-06T21:16:38.700Z,75.05
2019-01-06T21:19:24.402Z,74.80
2019-01-06T21:22:14.774Z,74.97
2019-01-06T21:25:10.437Z,75.57
2019-01-06T21:28:07.661Z,75.67
2019-01-06T21:31:12.274Z,75.41
2019-01-06T21:33:57.943Z,75.19
2019-01-06T21:36:40.013Z,74.89
2019-01-06T21:39:31.040Z,75.22
2019-01-06T21:42:17.571Z,74.85
2019-01-06T21:45:14.429Z,74.93
2019-01-06T21:48:14.265Z,75.65
2019-01-06T21:51:06.590Z,75.27
2019-01-06T21:54:04.149Z,75.25
2019-01-06T21:56:52.750Z,75.32
2019-01-06T21:59:46.642Z,75.38
2019-01-06T22:02:51.573Z,75.83
2019-01-06T22:05:44.295Z,75.88
2019-01-06T22:08:39.678Z,75.71
2019-01-06T22:11:41.340Z,76.03
2019-01-06T22:14:31.838Z,76.13
2019-01-06T22:17:13.405Z,76.19
2019-01-06T22:20:00.201Z,76.11
2019-01-06T22:22:47.054Z,76.79
2019-01-06T22:25:36.569Z,77.06
2019-01-06T22:28:23.357Z,76.50
2019-01-06T22:31:10.043Z,77.01
2019-01-06T22:34:06.587Z,76.70
2019-01-06T22:37:02.990Z,76.95
2019-01-06T22:39:42.557Z,76.78
2019-01-06T22:42:26.905Z,76.71
2019-01-06T22:45:12.210Z,77.13
2019-01-06T22:47:58.118Z,77.02
2019-01-06T22:50:43.785Z,76.66
2019-01-06T22:53:34.021Z,76.76
2019-01-06T22:56:25.495Z,76.68
2019-01-06T22:59:22.270Z,76.50
2019-01-06T23:02:13.413Z,77.06
2019-01-06T23:05:06.323Z,76.96
2019-01-06T23:07:55.693Z,76.74
2019-01-06T23:10:42.986Z,76.50
2019-01-06T23:13:22.934Z,76.31
2019-01-06T23:16:09.000Z,76.41
2019-01-06T23:18:55.054Z,76.68
2019-01-06T23:21:53.111Z,76.65
2019-01-06T23:24:51.313Z,76.73
2019-01-06T23:27:50.875Z,76.32
2019-01-06T23:30:46.760Z,76.84
2019-01-06T23:33:28.137Z,76.49
2019-01-06T23:36:12.994Z,76.18
2019-01-06T23:39:05.537Z,76.43
2019-01-06T23:41:48.756Z,76.40
2019-01-06T23:44:38.422Z,76.57
2019-01-06T23:47:25.624Z,76.53
2019-01-06T23:50:09.049Z,76.39
2019-01-06T23:53:09.683Z,76.22
2019-01-06T23:55:55.218Z,76.54
2019-01-06T23:58:41.654Z,76.54
